sensor_id;sensor_type;location;lat;lon;timestamp;P1;durP1;ratioP1;P2;durP2;ratioP2
75408;SDS011;63979;55.644;37.734;2023-02-03T00:01:14;23.38;;;9.60;;
75408;SDS011;63979;55.644;37.734;2023-02-03T00:06:16;27.52;;;12.68;;
75408;SDS011;63979;55.644;37.734;2023-02-03T00:11:17;24.20;;;12.02;;
75408;SDS011;63979;55.644;37.734;2023-02-03T00:16:18;22.60;;;9.65;;
75408;SDS011;63979;55.644;37.734;2023-02-03T00:21:18;24.67;;;10.73;;
75408;SDS011;63979;55.644;37.734;2023-02-03T00:26:20;23.42;;;10.05;;
75408;SDS011;63979;55.644;37.734;2023-02-03T00:31:22;33.05;;;14.05;;
75408;SDS011;63979;55.644;37.734;2023-02-03T00:36:24;25.58;;;11.73;;
75408;SDS011;63979;55.644;37.734;2023-02-03T00:41:27;24.58;;;10.50;;
75408;SDS011;63979;55.644;37.734;2023-02-03T00:51:31;27.90;;;11.68;;
75408;SDS011;63979;55.644;37.734;2023-02-03T00:56:33;29.63;;;12.48;;
75408;SDS011;63979;55.644;37.734;2023-02-03T01:01:34;23.85;;;10.43;;
75408;SDS011;63979;55.644;37.734;2023-02-03T01:06:35;28.38;;;12.10;;
75408;SDS011;63979;55.644;37.734;2023-02-03T01:11:35;22.85;;;10.38;;
75408;SDS011;63979;55.644;37.734;2023-02-03T01:16:36;22.05;;;11.88;;
75408;SDS011;63979;55.644;37.734;2023-02-03T01:21:37;33.55;;;15.25;;
75408;SDS011;63979;55.644;37.734;2023-02-03T01:26:38;30.25;;;10.40;;
75408;SDS011;63979;55.644;37.734;2023-02-03T01:31:39;20.00;;;9.48;;
75408;SDS011;63979;55.644;37.734;2023-02-03T01:36:41;30.83;;;12.30;;
75408;SDS011;63979;55.644;37.734;2023-02-03T01:41:42;27.65;;;11.00;;
75408;SDS011;63979;55.644;37.734;2023-02-03T01:46:45;20.85;;;10.15;;
75408;SDS011;63979;55.644;37.734;2023-02-03T01:51:48;24.45;;;10.80;;
75408;SDS011;63979;55.644;37.734;2023-02-03T01:56:52;24.65;;;11.35;;
75408;SDS011;63979;55.644;37.734;2023-02-03T02:01:56;30.75;;;12.77;;
75408;SDS011;63979;55.644;37.734;2023-02-03T02:06:59;28.10;;;13.18;;
75408;SDS011;63979;55.644;37.734;2023-02-03T02:12:00;29.17;;;12.70;;
75408;SDS011;63979;55.644;37.734;2023-02-03T02:17:04;28.80;;;12.65;;
75408;SDS011;63979;55.644;37.734;2023-02-03T02:27:56;29.45;;;13.07;;
75408;SDS011;63979;55.644;37.734;2023-02-03T02:33:29;35.40;;;12.98;;
75408;SDS011;63979;55.644;37.734;2023-02-03T02:49:49;31.00;;;12.20;;
75408;SDS011;63979;55.644;37.734;2023-02-03T02:59:38;33.63;;;12.48;;
75408;SDS011;63979;55.644;37.734;2023-02-03T03:04:39;39.05;;;13.40;;
75408;SDS011;63979;55.644;37.734;2023-02-03T03:09:44;32.10;;;14.35;;
75408;SDS011;63979;55.644;37.734;2023-02-03T03:14:54;30.30;;;14.73;;
75408;SDS011;63979;55.644;37.734;2023-02-03T03:20:01;31.20;;;13.07;;
75408;SDS011;63979;55.644;37.734;2023-02-03T03:25:50;32.60;;;13.95;;
75408;SDS011;63979;55.644;37.734;2023-02-03T03:30:35;29.38;;;13.18;;
75408;SDS011;63979;55.644;37.734;2023-02-03T03:47:07;24.90;;;10.30;;
75408;SDS011;63979;55.644;37.734;2023-02-03T03:52:20;34.92;;;13.00;;
75408;SDS011;63979;55.644;37.734;2023-02-03T03:57:33;30.35;;;13.07;;
75408;SDS011;63979;55.644;37.734;2023-02-03T04:02:39;37.50;;;16.95;;
75408;SDS011;63979;55.644;37.734;2023-02-03T04:07:44;27.73;;;12.35;;
75408;SDS011;63979;55.644;37.734;2023-02-03T04:12:46;23.45;;;12.20;;
75408;SDS011;63979;55.644;37.734;2023-02-03T04:17:47;25.90;;;11.90;;
75408;SDS011;63979;55.644;37.734;2023-02-03T04:22:48;25.70;;;11.75;;
75408;SDS011;63979;55.644;37.734;2023-02-03T04:27:49;31.40;;;13.10;;
75408;SDS011;63979;55.644;37.734;2023-02-03T04:32:51;28.95;;;11.32;;
75408;SDS011;63979;55.644;37.734;2023-02-03T04:37:54;40.58;;;15.43;;
75408;SDS011;63979;55.644;37.734;2023-02-03T04:42:55;21.00;;;10.57;;
75408;SDS011;63979;55.644;37.734;2023-02-03T04:47:58;27.05;;;14.60;;
75408;SDS011;63979;55.644;37.734;2023-02-03T04:52:59;28.92;;;12.10;;
75408;SDS011;63979;55.644;37.734;2023-02-03T04:58:00;29.60;;;12.82;;
75408;SDS011;63979;55.644;37.734;2023-02-03T05:03:01;31.08;;;11.27;;
75408;SDS011;63979;55.644;37.734;2023-02-03T05:08:02;33.00;;;15.27;;
75408;SDS011;63979;55.644;37.734;2023-02-03T05:13:05;35.35;;;14.88;;
75408;SDS011;63979;55.644;37.734;2023-02-03T05:18:06;37.13;;;14.00;;
75408;SDS011;63979;55.644;37.734;2023-02-03T05:23:07;27.90;;;10.73;;
75408;SDS011;63979;55.644;37.734;2023-02-03T05:28:08;30.70;;;11.32;;
75408;SDS011;63979;55.644;37.734;2023-02-03T05:33:08;25.80;;;11.48;;
75408;SDS011;63979;55.644;37.734;2023-02-03T05:38:12;28.23;;;12.25;;
75408;SDS011;63979;55.644;37.734;2023-02-03T05:43:12;32.28;;;12.52;;
75408;SDS011;63979;55.644;37.734;2023-02-03T05:48:13;31.42;;;10.85;;
75408;SDS011;63979;55.644;37.734;2023-02-03T05:53:14;31.75;;;12.80;;
75408;SDS011;63979;55.644;37.734;2023-02-03T05:58:15;28.55;;;12.13;;
75408;SDS011;63979;55.644;37.734;2023-02-03T06:03:19;29.10;;;12.20;;
75408;SDS011;63979;55.644;37.734;2023-02-03T06:08:20;33.78;;;12.35;;
75408;SDS011;63979;55.644;37.734;2023-02-03T06:13:21;33.42;;;11.10;;
75408;SDS011;63979;55.644;37.734;2023-02-03T06:18:22;31.73;;;13.57;;
75408;SDS011;63979;55.644;37.734;2023-02-03T06:23:23;30.60;;;13.07;;
75408;SDS011;63979;55.644;37.734;2023-02-03T06:28:24;35.00;;;13.98;;
75408;SDS011;63979;55.644;37.734;2023-02-03T06:33:26;32.45;;;12.75;;
75408;SDS011;63979;55.644;37.734;2023-02-03T06:38:27;28.33;;;13.40;;
75408;SDS011;63979;55.644;37.734;2023-02-03T06:43:30;32.08;;;14.00;;
75408;SDS011;63979;55.644;37.734;2023-02-03T06:48:34;28.90;;;11.32;;
75408;SDS011;63979;55.644;37.734;2023-02-03T06:53:35;28.40;;;12.52;;
75408;SDS011;63979;55.644;37.734;2023-02-03T06:58:36;34.90;;;14.35;;
75408;SDS011;63979;55.644;37.734;2023-02-03T07:03:37;31.75;;;13.18;;
75408;SDS011;63979;55.644;37.734;2023-02-03T07:08:41;36.47;;;14.02;;
75408;SDS011;63979;55.644;37.734;2023-02-03T07:13:42;30.17;;;10.90;;
75408;SDS011;63979;55.644;37.734;2023-02-03T07:18:44;25.20;;;11.32;;
75408;SDS011;63979;55.644;37.734;2023-02-03T07:23:46;29.95;;;13.00;;
75408;SDS011;63979;55.644;37.734;2023-02-03T07:28:47;29.23;;;12.90;;
75408;SDS011;63979;55.644;37.734;2023-02-03T07:33:49;28.65;;;12.85;;
75408;SDS011;63979;55.644;37.734;2023-02-03T07:38:50;28.05;;;12.05;;
75408;SDS011;63979;55.644;37.734;2023-02-03T07:43:50;22.23;;;9.32;;
75408;SDS011;63979;55.644;37.734;2023-02-03T07:48:51;27.20;;;9.10;;
75408;SDS011;63979;55.644;37.734;2023-02-03T07:58:57;15.55;;;6.40;;
75408;SDS011;63979;55.644;37.734;2023-02-03T08:03:58;24.58;;;9.98;;
75408;SDS011;63979;55.644;37.734;2023-02-03T08:09:01;24.90;;;11.10;;
75408;SDS011;63979;55.644;37.734;2023-02-03T08:14:03;21.60;;;10.10;;
75408;SDS011;63979;55.644;37.734;2023-02-03T08:19:04;18.67;;;7.68;;
75408;SDS011;63979;55.644;37.734;2023-02-03T08:24:05;22.95;;;11.30;;
75408;SDS011;63979;55.644;37.734;2023-02-03T08:29:06;21.13;;;8.73;;
75408;SDS011;63979;55.644;37.734;2023-02-03T08:34:07;19.83;;;10.27;;
75408;SDS011;63979;55.644;37.734;2023-02-03T08:39:08;15.85;;;9.20;;
75408;SDS011;63979;55.644;37.734;2023-02-03T08:44:10;20.83;;;8.20;;
75408;SDS011;63979;55.644;37.734;2023-02-03T08:49:11;27.70;;;11.45;;
75408;SDS011;63979;55.644;37.734;2023-02-03T08:54:13;20.15;;;8.52;;
75408;SDS011;63979;55.644;37.734;2023-02-03T08:59:14;22.70;;;10.25;;
75408;SDS011;63979;55.644;37.734;2023-02-03T09:04:16;27.30;;;11.38;;
75408;SDS011;63979;55.644;37.734;2023-02-03T09:09:24;22.02;;;9.38;;
75408;SDS011;63979;55.644;37.734;2023-02-03T09:14:27;20.30;;;11.13;;
75408;SDS011;63979;55.644;37.734;2023-02-03T09:19:29;24.23;;;11.57;;
75408;SDS011;63979;55.644;37.734;2023-02-03T09:24:30;23.02;;;10.82;;
75408;SDS011;63979;55.644;37.734;2023-02-03T09:29:31;22.92;;;10.80;;
75408;SDS011;63979;55.644;37.734;2023-02-03T09:34:32;19.40;;;9.18;;
75408;SDS011;63979;55.644;37.734;2023-02-03T09:39:33;17.73;;;8.68;;
75408;SDS011;63979;55.644;37.734;2023-02-03T09:49:55;23.08;;;10.40;;
75408;SDS011;63979;55.644;37.734;2023-02-03T09:55:00;23.08;;;9.50;;
75408;SDS011;63979;55.644;37.734;2023-02-03T10:00:19;17.58;;;8.52;;
75408;SDS011;63979;55.644;37.734;2023-02-03T10:05:29;18.20;;;9.75;;
75408;SDS011;63979;55.644;37.734;2023-02-03T10:10:52;22.10;;;9.95;;
75408;SDS011;63979;55.644;37.734;2023-02-03T10:16:49;17.13;;;7.93;;
75408;SDS011;63979;55.644;37.734;2023-02-03T10:21:57;19.02;;;9.32;;
75408;SDS011;63979;55.644;37.734;2023-02-03T10:26:59;21.75;;;9.55;;
75408;SDS011;63979;55.644;37.734;2023-02-03T10:32:01;20.50;;;8.48;;
75408;SDS011;63979;55.644;37.734;2023-02-03T10:37:05;15.55;;;7.57;;
75408;SDS011;63979;55.644;37.734;2023-02-03T10:42:23;22.85;;;11.43;;
75408;SDS011;63979;55.644;37.734;2023-02-03T10:47:26;22.63;;;9.10;;
75408;SDS011;63979;55.644;37.734;2023-02-03T10:52:30;16.40;;;7.40;;
75408;SDS011;63979;55.644;37.734;2023-02-03T10:57:36;21.27;;;9.68;;
75408;SDS011;63979;55.644;37.734;2023-02-03T11:02:41;14.75;;;7.90;;
75408;SDS011;63979;55.644;37.734;2023-02-03T11:07:43;19.88;;;8.50;;
75408;SDS011;63979;55.644;37.734;2023-02-03T11:12:44;12.88;;;7.15;;
75408;SDS011;63979;55.644;37.734;2023-02-03T11:17:45;14.07;;;7.25;;
75408;SDS011;63979;55.644;37.734;2023-02-03T11:22:46;18.27;;;7.90;;
75408;SDS011;63979;55.644;37.734;2023-02-03T11:27:48;16.23;;;8.38;;
75408;SDS011;63979;55.644;37.734;2023-02-03T11:32:49;22.95;;;9.50;;
75408;SDS011;63979;55.644;37.734;2023-02-03T11:37:52;15.82;;;6.90;;
75408;SDS011;63979;55.644;37.734;2023-02-03T11:48:41;21.45;;;8.73;;
75408;SDS011;63979;55.644;37.734;2023-02-03T12:14:22;10.95;;;7.00;;
75408;SDS011;63979;55.644;37.734;2023-02-03T12:19:45;12.23;;;4.97;;
75408;SDS011;63979;55.644;37.734;2023-02-03T12:30:40;12.80;;;6.43;;
75408;SDS011;63979;55.644;37.734;2023-02-03T12:35:48;11.95;;;4.88;;
75408;SDS011;63979;55.644;37.734;2023-02-03T12:40:54;15.85;;;8.10;;
75408;SDS011;63979;55.644;37.734;2023-02-03T12:46:03;10.73;;;5.82;;
75408;SDS011;63979;55.644;37.734;2023-02-03T12:56:28;9.90;;;6.03;;
75408;SDS011;63979;55.644;37.734;2023-02-03T13:01:37;10.35;;;6.45;;
75408;SDS011;63979;55.644;37.734;2023-02-03T13:12:16;13.40;;;6.95;;
75408;SDS011;63979;55.644;37.734;2023-02-03T13:17:29;15.35;;;7.00;;
75408;SDS011;63979;55.644;37.734;2023-02-03T13:22:38;15.85;;;8.13;;
75408;SDS011;63979;55.644;37.734;2023-02-03T13:27:47;12.30;;;5.78;;
75408;SDS011;63979;55.644;37.734;2023-02-03T13:43:53;12.93;;;6.32;;
75408;SDS011;63979;55.644;37.734;2023-02-03T13:48:57;12.20;;;6.68;;
75408;SDS011;63979;55.644;37.734;2023-02-03T13:54:04;15.75;;;8.50;;
75408;SDS011;63979;55.644;37.734;2023-02-03T14:24:36;18.45;;;8.50;;
75408;SDS011;63979;55.644;37.734;2023-02-03T14:29:39;16.92;;;8.98;;
75408;SDS011;63979;55.644;37.734;2023-02-03T14:34:47;19.23;;;8.93;;
75408;SDS011;63979;55.644;37.734;2023-02-03T14:51:12;18.80;;;8.35;;
75408;SDS011;63979;55.644;37.734;2023-02-03T15:01:26;20.50;;;10.05;;
75408;SDS011;63979;55.644;37.734;2023-02-03T15:06:49;26.40;;;11.30;;
75408;SDS011;63979;55.644;37.734;2023-02-03T15:11:52;22.80;;;11.52;;
75408;SDS011;63979;55.644;37.734;2023-02-03T15:16:55;15.57;;;7.80;;
75408;SDS011;63979;55.644;37.734;2023-02-03T15:21:58;19.95;;;9.02;;
75408;SDS011;63979;55.644;37.734;2023-02-03T15:27:00;17.85;;;8.95;;
75408;SDS011;63979;55.644;37.734;2023-02-03T15:47:52;19.50;;;9.85;;
75408;SDS011;63979;55.644;37.734;2023-02-03T15:53:04;23.33;;;11.25;;
75408;SDS011;63979;55.644;37.734;2023-02-03T15:58:19;18.90;;;9.20;;
75408;SDS011;63979;55.644;37.734;2023-02-03T16:03:32;14.88;;;8.25;;
75408;SDS011;63979;55.644;37.734;2023-02-03T16:08:40;15.98;;;8.30;;
75408;SDS011;63979;55.644;37.734;2023-02-03T16:13:45;20.23;;;10.35;;
75408;SDS011;63979;55.644;37.734;2023-02-03T16:18:50;13.25;;;6.35;;
75408;SDS011;63979;55.644;37.734;2023-02-03T16:23:57;19.73;;;10.02;;
75408;SDS011;63979;55.644;37.734;2023-02-03T16:34:22;13.18;;;7.35;;
75408;SDS011;63979;55.644;37.734;2023-02-03T16:39:41;14.38;;;7.22;;
75408;SDS011;63979;55.644;37.734;2023-02-03T16:45:01;15.05;;;8.70;;
75408;SDS011;63979;55.644;37.734;2023-02-03T16:50:23;17.50;;;9.55;;
75408;SDS011;63979;55.644;37.734;2023-02-03T16:55:43;15.02;;;7.82;;
75408;SDS011;63979;55.644;37.734;2023-02-03T17:00:45;13.40;;;7.82;;
75408;SDS011;63979;55.644;37.734;2023-02-03T17:05:50;12.30;;;7.15;;
75408;SDS011;63979;55.644;37.734;2023-02-03T17:10:52;17.80;;;10.00;;
75408;SDS011;63979;55.644;37.734;2023-02-03T17:15:53;13.32;;;7.20;;
75408;SDS011;63979;55.644;37.734;2023-02-03T17:20:54;14.68;;;7.68;;
75408;SDS011;63979;55.644;37.734;2023-02-03T17:25:55;11.98;;;5.88;;
75408;SDS011;63979;55.644;37.734;2023-02-03T17:31:06;13.13;;;6.20;;
75408;SDS011;63979;55.644;37.734;2023-02-03T17:36:09;12.48;;;7.28;;
75408;SDS011;63979;55.644;37.734;2023-02-03T17:41:13;16.63;;;7.15;;
75408;SDS011;63979;55.644;37.734;2023-02-03T17:46:17;13.15;;;7.70;;
75408;SDS011;63979;55.644;37.734;2023-02-03T17:51:24;15.27;;;8.18;;
75408;SDS011;63979;55.644;37.734;2023-02-03T17:56:25;16.23;;;8.45;;
75408;SDS011;63979;55.644;37.734;2023-02-03T18:01:27;20.35;;;9.27;;
75408;SDS011;63979;55.644;37.734;2023-02-03T18:06:29;17.75;;;9.68;;
75408;SDS011;63979;55.644;37.734;2023-02-03T18:11:32;19.85;;;10.43;;
75408;SDS011;63979;55.644;37.734;2023-02-03T18:16:34;11.57;;;4.80;;
75408;SDS011;63979;55.644;37.734;2023-02-03T18:21:39;9.75;;;5.18;;
75408;SDS011;63979;55.644;37.734;2023-02-03T18:26:48;9.88;;;4.90;;
75408;SDS011;63979;55.644;37.734;2023-02-03T18:31:51;4.75;;;3.15;;
75408;SDS011;63979;55.644;37.734;2023-02-03T18:36:52;4.88;;;2.72;;
75408;SDS011;63979;55.644;37.734;2023-02-03T18:41:53;4.22;;;2.85;;
75408;SDS011;63979;55.644;37.734;2023-02-03T18:46:54;5.50;;;3.40;;
75408;SDS011;63979;55.644;37.734;2023-02-03T18:51:56;8.60;;;4.45;;
75408;SDS011;63979;55.644;37.734;2023-02-03T18:56:57;6.28;;;4.15;;
75408;SDS011;63979;55.644;37.734;2023-02-03T19:01:58;5.40;;;3.63;;
75408;SDS011;63979;55.644;37.734;2023-02-03T19:07:00;6.68;;;3.63;;
75408;SDS011;63979;55.644;37.734;2023-02-03T19:12:01;5.30;;;3.17;;
75408;SDS011;63979;55.644;37.734;2023-02-03T19:17:03;7.32;;;3.05;;
75408;SDS011;63979;55.644;37.734;2023-02-03T19:22:04;4.75;;;2.47;;
75408;SDS011;63979;55.644;37.734;2023-02-03T19:27:05;6.05;;;3.30;;
75408;SDS011;63979;55.644;37.734;2023-02-03T19:32:06;7.30;;;3.45;;
75408;SDS011;63979;55.644;37.734;2023-02-03T19:37:08;3.25;;;2.10;;
75408;SDS011;63979;55.644;37.734;2023-02-03T19:42:09;3.60;;;2.33;;
75408;SDS011;63979;55.644;37.734;2023-02-03T19:47:11;7.20;;;3.15;;
75408;SDS011;63979;55.644;37.734;2023-02-03T19:52:11;6.85;;;3.95;;
75408;SDS011;63979;55.644;37.734;2023-02-03T19:57:12;8.10;;;3.85;;
75408;SDS011;63979;55.644;37.734;2023-02-03T20:02:13;3.58;;;2.47;;
75408;SDS011;63979;55.644;37.734;2023-02-03T20:07:15;3.50;;;2.22;;
75408;SDS011;63979;55.644;37.734;2023-02-03T20:12:16;4.40;;;2.80;;
75408;SDS011;63979;55.644;37.734;2023-02-03T20:17:17;4.22;;;3.05;;
75408;SDS011;63979;55.644;37.734;2023-02-03T20:22:18;6.93;;;3.22;;
75408;SDS011;63979;55.644;37.734;2023-02-03T20:27:25;6.15;;;3.40;;
75408;SDS011;63979;55.644;37.734;2023-02-03T20:32:38;5.75;;;3.72;;
75408;SDS011;63979;55.644;37.734;2023-02-03T20:37:44;5.30;;;2.92;;
75408;SDS011;63979;55.644;37.734;2023-02-03T20:42:44;3.92;;;2.90;;
75408;SDS011;63979;55.644;37.734;2023-02-03T20:47:47;4.03;;;2.95;;
75408;SDS011;63979;55.644;37.734;2023-02-03T20:52:53;3.33;;;2.10;;
75408;SDS011;63979;55.644;37.734;2023-02-03T20:57:54;6.93;;;2.53;;
75408;SDS011;63979;55.644;37.734;2023-02-03T21:02:56;3.80;;;2.40;;
75408;SDS011;63979;55.644;37.734;2023-02-03T21:08:16;3.67;;;2.55;;
75408;SDS011;63979;55.644;37.734;2023-02-03T21:13:22;4.07;;;2.65;;
75408;SDS011;63979;55.644;37.734;2023-02-03T21:18:38;2.85;;;2.20;;
75408;SDS011;63979;55.644;37.734;2023-02-03T21:34:34;3.65;;;2.05;;
75408;SDS011;63979;55.644;37.734;2023-02-03T21:39:37;3.85;;;2.58;;
75408;SDS011;63979;55.644;37.734;2023-02-03T21:44:39;4.03;;;2.45;;
75408;SDS011;63979;55.644;37.734;2023-02-03T21:49:40;6.05;;;2.70;;
75408;SDS011;63979;55.644;37.734;2023-02-03T21:54:41;4.10;;;2.70;;
75408;SDS011;63979;55.644;37.734;2023-02-03T21:59:43;3.42;;;2.30;;
75408;SDS011;63979;55.644;37.734;2023-02-03T22:04:48;3.05;;;2.20;;
75408;SDS011;63979;55.644;37.734;2023-02-03T22:09:49;3.35;;;1.90;;
75408;SDS011;63979;55.644;37.734;2023-02-03T22:14:51;5.25;;;2.67;;
75408;SDS011;63979;55.644;37.734;2023-02-03T22:19:51;3.97;;;2.45;;
75408;SDS011;63979;55.644;37.734;2023-02-03T22:24:52;6.32;;;2.78;;
75408;SDS011;63979;55.644;37.734;2023-02-03T22:29:53;4.05;;;2.50;;
75408;SDS011;63979;55.644;37.734;2023-02-03T22:34:55;5.15;;;2.47;;
75408;SDS011;63979;55.644;37.734;2023-02-03T22:39:56;3.92;;;2.63;;
75408;SDS011;63979;55.644;37.734;2023-02-03T22:44:58;3.70;;;2.75;;
75408;SDS011;63979;55.644;37.734;2023-02-03T22:49:59;5.00;;;3.35;;
75408;SDS011;63979;55.644;37.734;2023-02-03T22:55:00;3.92;;;2.17;;
75408;SDS011;63979;55.644;37.734;2023-02-03T23:00:01;4.35;;;2.67;;
75408;SDS011;63979;55.644;37.734;2023-02-03T23:05:05;3.85;;;2.20;;
75408;SDS011;63979;55.644;37.734;2023-02-03T23:10:09;4.57;;;2.83;;
75408;SDS011;63979;55.644;37.734;2023-02-03T23:15:13;4.32;;;2.42;;
75408;SDS011;63979;55.644;37.734;2023-02-03T23:20:15;3.55;;;2.22;;
75408;SDS011;63979;55.644;37.734;2023-02-03T23:25:17;6.00;;;2.58;;
75408;SDS011;63979;55.644;37.734;2023-02-03T23:30:18;3.33;;;2.50;;
75408;SDS011;63979;55.644;37.734;2023-02-03T23:35:19;4.32;;;2.85;;
75408;SDS011;63979;55.644;37.734;2023-02-03T23:40:40;5.78;;;3.15;;
75408;SDS011;63979;55.644;37.734;2023-02-03T23:45:41;6.97;;;2.95;;
75408;SDS011;63979;55.644;37.734;2023-02-03T23:50:42;5.97;;;3.70;;
75408;SDS011;63979;55.644;37.734;2023-02-03T23:55:44;5.10;;;4.10;;
